createdAt,value
2022-07-29T00:01:04.340Z,19.40
2022-07-29T00:03:31.106Z,19.40
2022-07-29T00:05:57.837Z,19.40
2022-07-29T00:08:24.559Z,19.40
2022-07-29T00:10:52.040Z,19.40
2022-07-29T00:13:18.715Z,19.30
2022-07-29T00:16:04.757Z,19.30
2022-07-29T00:18:31.998Z,19.30
2022-07-29T00:20:58.718Z,19.30
2022-07-29T00:23:25.400Z,19.30
2022-07-29T00:25:52.075Z,19.20
2022-07-29T00:28:18.878Z,19.30
2022-07-29T00:30:45.544Z,19.20
2022-07-29T00:33:12.258Z,19.30
2022-07-29T00:35:44.860Z,19.30
2022-07-29T00:38:17.476Z,19.20
2022-07-29T00:40:45.154Z,19.30
2022-07-29T00:43:12.922Z,19.20
2022-07-29T00:45:39.678Z,19.20
2022-07-29T00:48:07.504Z,19.20
2022-07-29T00:50:34.273Z,19.20
2022-07-29T00:53:02.026Z,19.20
2022-07-29T00:55:28.771Z,19.10
2022-07-29T00:57:56.313Z,19.20
2022-07-29T01:00:26.287Z,19.20
2022-07-29T01:02:53.659Z,19.20
2022-07-29T01:05:22.745Z,19.20
2022-07-29T01:07:50.754Z,19.20
2022-07-29T01:10:17.601Z,19.20
2022-07-29T01:12:46.086Z,19.20
2022-07-29T01:15:13.212Z,19.20
2022-07-29T01:18:02.661Z,19.10
2022-07-29T01:20:32.878Z,19.10
2022-07-29T01:23:33.875Z,19.10
2022-07-29T01:26:23.579Z,19.10
2022-07-29T01:29:08.700Z,19.10
2022-07-29T01:31:58.825Z,19.10
2022-07-29T01:34:32.428Z,19.10
2022-07-29T01:37:06.578Z,19.10
2022-07-29T01:39:38.049Z,19.00
2022-07-29T01:42:22.251Z,19.00
2022-07-29T01:45:17.454Z,19.00
2022-07-29T01:47:47.154Z,19.00
2022-07-29T01:50:17.439Z,19.00
2022-07-29T01:52:50.989Z,19.00
2022-07-29T01:55:18.748Z,19.00
2022-07-29T01:57:47.890Z,19.00
2022-07-29T02:00:15.686Z,19.00
2022-07-29T02:02:44.686Z,19.00
2022-07-29T02:05:14.083Z,19.00
2022-07-29T02:07:43.144Z,19.00
2022-07-29T02:10:10.910Z,19.10
2022-07-29T02:12:38.716Z,19.10
2022-07-29T02:15:06.272Z,19.10
2022-07-29T02:17:43.761Z,19.10
2022-07-29T02:20:11.246Z,19.10
2022-07-29T02:22:40.349Z,19.20
2022-07-29T02:25:13.834Z,19.20
2022-07-29T02:27:42.538Z,19.10
2022-07-29T02:30:11.099Z,19.10
2022-07-29T02:32:39.125Z,19.10
2022-07-29T02:35:08.839Z,19.10
2022-07-29T02:37:37.237Z,19.10
2022-07-29T02:40:04.533Z,19.10
2022-07-29T02:42:32.581Z,19.10
2022-07-29T02:44:59.277Z,19.10
2022-07-29T02:47:41.861Z,19.10
2022-07-29T02:50:12.627Z,19.10
2022-07-29T02:52:44.554Z,19.00
2022-07-29T02:55:17.297Z,19.00
2022-07-29T02:58:03.934Z,19.00
2022-07-29T03:00:33.389Z,19.00
2022-07-29T03:03:01.552Z,19.00
2022-07-29T03:05:28.644Z,19.00
2022-07-29T03:08:14.115Z,19.00
2022-07-29T03:10:45.056Z,19.00
2022-07-29T03:13:13.348Z,19.00
2022-07-29T03:15:40.386Z,19.10
2022-07-29T03:18:07.631Z,19.10
2022-07-29T03:20:34.510Z,19.10
2022-07-29T03:23:01.260Z,19.10
2022-07-29T03:25:28.340Z,19.10
2022-07-29T03:27:55.094Z,19.10
2022-07-29T03:30:22.527Z,19.00
2022-07-29T03:32:52.165Z,19.00
2022-07-29T03:35:23.547Z,19.00
2022-07-29T03:37:50.523Z,19.00
2022-07-29T03:40:27.205Z,19.00
2022-07-29T03:42:55.850Z,19.00
2022-07-29T03:45:23.124Z,19.00
2022-07-29T03:47:58.441Z,19.00
2022-07-29T03:50:27.513Z,18.90
2022-07-29T03:52:54.344Z,18.90
2022-07-29T03:55:21.417Z,18.90
2022-07-29T03:57:49.852Z,18.90
2022-07-29T04:00:16.971Z,18.90
2022-07-29T04:02:49.436Z,18.90
2022-07-29T04:05:17.133Z,18.90
2022-07-29T04:07:48.714Z,18.90
2022-07-29T04:10:30.688Z,18.80
2022-07-29T04:12:59.991Z,18.80
2022-07-29T04:15:30.925Z,18.80
2022-07-29T04:17:58.816Z,18.80
2022-07-29T04:20:25.587Z,18.80
2022-07-29T04:22:52.336Z,18.80
2022-07-29T04:25:19.012Z,18.80
2022-07-29T04:28:04.265Z,18.90
2022-07-29T04:30:32.638Z,18.80
2022-07-29T04:33:01.714Z,18.80
2022-07-29T04:35:29.471Z,18.80
2022-07-29T04:37:56.147Z,18.80
2022-07-29T04:40:23.012Z,18.90
2022-07-29T04:42:49.784Z,18.90
2022-07-29T04:45:16.648Z,18.90
2022-07-29T04:47:49.571Z,18.90
2022-07-29T04:50:16.263Z,19.00
2022-07-29T04:52:43.004Z,19.00
2022-07-29T04:55:10.440Z,19.10
2022-07-29T04:57:37.281Z,19.10
2022-07-29T05:00:05.259Z,19.20
2022-07-29T05:02:32.027Z,19.20
2022-07-29T05:04:58.803Z,19.30
2022-07-29T05:07:25.670Z,19.40
2022-07-29T05:09:52.407Z,19.40
2022-07-29T05:12:19.098Z,19.50
2022-07-29T05:14:45.795Z,19.60
2022-07-29T05:17:12.484Z,19.60
2022-07-29T05:19:39.540Z,19.70
2022-07-29T05:22:06.605Z,19.70
2022-07-29T05:24:33.328Z,19.80
2022-07-29T05:27:00.148Z,19.90
2022-07-29T05:29:44.663Z,19.90
2022-07-29T05:32:12.959Z,19.90
2022-07-29T05:34:50.196Z,19.90
2022-07-29T05:37:19.593Z,20.00
2022-07-29T05:39:50.510Z,20.00
2022-07-29T05:42:23.232Z,20.00
2022-07-29T05:44:49.902Z,20.00
2022-07-29T05:47:16.978Z,20.00
2022-07-29T05:49:43.707Z,20.00
2022-07-29T05:52:10.567Z,20.00
2022-07-29T05:54:37.404Z,20.10
2022-07-29T05:57:04.308Z,20.10
2022-07-29T05:59:31.000Z,20.10
2022-07-29T06:01:58.693Z,20.10
2022-07-29T06:04:25.564Z,20.20
2022-07-29T06:06:52.402Z,20.20
2022-07-29T06:09:19.705Z,20.20
2022-07-29T06:11:46.790Z,20.30
2022-07-29T06:14:13.797Z,20.30
2022-07-29T06:16:40.807Z,20.40
2022-07-29T06:19:07.717Z,20.50
2022-07-29T06:21:36.439Z,20.50
2022-07-29T06:24:08.764Z,20.50
2022-07-29T06:26:39.735Z,20.60
2022-07-29T06:29:07.696Z,20.70
2022-07-29T06:31:34.597Z,20.80
2022-07-29T06:34:01.326Z,20.80
2022-07-29T06:36:28.114Z,20.90
2022-07-29T06:38:54.774Z,21.00
2022-07-29T06:41:24.019Z,21.00
2022-07-29T06:43:54.503Z,21.10
2022-07-29T06:46:23.309Z,21.10
2022-07-29T06:48:50.960Z,21.10
2022-07-29T06:51:22.510Z,21.20
2022-07-29T06:54:01.743Z,21.20
2022-07-29T06:56:39.543Z,21.10
2022-07-29T06:59:08.059Z,21.00
2022-07-29T07:01:35.873Z,21.00
2022-07-29T07:04:03.105Z,21.00
2022-07-29T07:06:30.011Z,21.10
2022-07-29T07:08:56.773Z,21.20
2022-07-29T07:11:23.512Z,21.40
2022-07-29T07:13:50.259Z,21.50
2022-07-29T07:16:17.296Z,21.70
2022-07-29T07:18:45.996Z,21.80
2022-07-29T07:21:18.991Z,22.00
2022-07-29T07:23:46.883Z,22.10
2022-07-29T07:26:13.671Z,22.10
2022-07-29T07:28:40.554Z,22.00
2022-07-29T07:31:07.290Z,21.90
2022-07-29T07:33:34.210Z,21.80
2022-07-29T07:36:01.505Z,21.90
2022-07-29T07:38:28.352Z,22.10
2022-07-29T07:40:55.147Z,22.20
2022-07-29T07:43:22.779Z,22.40
2022-07-29T07:45:49.559Z,22.60
2022-07-29T07:48:16.273Z,22.60
2022-07-29T07:50:44.670Z,22.60
2022-07-29T07:53:11.783Z,22.70
2022-07-29T07:58:29.690Z,23.00
2022-07-29T08:00:56.486Z,23.00
2022-07-29T08:03:23.324Z,22.80
2022-07-29T08:05:51.982Z,22.70
2022-07-29T08:08:19.088Z,22.80
2022-07-29T08:10:56.291Z,22.70
2022-07-29T08:13:26.544Z,22.80
2022-07-29T08:15:59.305Z,22.80
2022-07-29T08:18:30.117Z,22.90
2022-07-29T08:21:00.243Z,23.20
2022-07-29T08:23:47.405Z,23.50
2022-07-29T08:26:17.845Z,23.80
2022-07-29T08:28:46.702Z,24.10
2022-07-29T08:31:17.208Z,24.20
2022-07-29T08:33:44.311Z,24.30
2022-07-29T08:36:11.111Z,24.30
2022-07-29T08:38:37.820Z,24.40
2022-07-29T08:41:04.568Z,24.40
2022-07-29T08:43:31.563Z,24.40
2022-07-29T08:45:59.105Z,24.40
2022-07-29T08:48:25.902Z,24.40
2022-07-29T08:50:57.340Z,24.40
2022-07-29T08:53:28.032Z,24.50
2022-07-29T08:55:57.033Z,24.50
2022-07-29T08:58:25.924Z,24.50
2022-07-29T09:00:56.510Z,24.50
2022-07-29T09:03:27.442Z,24.60
2022-07-29T09:05:54.422Z,24.70
2022-07-29T09:08:22.245Z,24.80
2022-07-29T09:10:49.253Z,24.90
2022-07-29T09:13:19.579Z,25.00
2022-07-29T09:15:49.687Z,25.00
2022-07-29T09:18:41.627Z,24.90
2022-07-29T09:21:29.977Z,24.90
2022-07-29T09:24:11.247Z,24.90
2022-07-29T09:26:40.652Z,24.90
2022-07-29T09:29:16.019Z,24.90
2022-07-29T09:31:49.039Z,24.90
2022-07-29T09:34:24.226Z,24.90
2022-07-29T09:36:52.887Z,24.90
2022-07-29T09:39:34.494Z,25.10
2022-07-29T09:42:04.762Z,25.10
2022-07-29T09:44:49.413Z,25.10
2022-07-29T09:47:16.796Z,25.10
2022-07-29T09:49:54.641Z,25.10
2022-07-29T09:52:22.333Z,25.20
2022-07-29T09:54:49.235Z,25.40
2022-07-29T09:57:30.372Z,25.50
2022-07-29T09:59:58.940Z,25.60
2022-07-29T10:02:30.268Z,25.70
2022-07-29T10:04:57.250Z,26.00
2022-07-29T10:07:24.084Z,26.10
2022-07-29T10:09:55.302Z,26.30
2022-07-29T10:12:22.474Z,26.20
2022-07-29T10:14:49.916Z,26.20
2022-07-29T10:17:17.736Z,26.00
2022-07-29T10:19:44.484Z,25.90
2022-07-29T10:22:11.699Z,26.00
2022-07-29T10:24:39.445Z,26.00
2022-07-29T10:27:09.044Z,26.00
2022-07-29T10:29:36.777Z,26.00
2022-07-29T10:32:31.409Z,26.10
2022-07-29T10:35:06.964Z,26.00
2022-07-29T10:37:55.069Z,26.10
2022-07-29T10:41:10.069Z,26.00
2022-07-29T10:43:44.953Z,25.90
2022-07-29T10:46:14.564Z,25.80
2022-07-29T10:49:08.224Z,25.90
2022-07-29T10:51:51.572Z,26.00
2022-07-29T10:54:42.365Z,26.20
2022-07-29T10:57:16.861Z,26.00
2022-07-29T10:59:53.102Z,25.70
2022-07-29T11:02:41.871Z,25.40
2022-07-29T11:05:20.117Z,25.20
2022-07-29T11:08:09.045Z,25.10
2022-07-29T11:10:37.443Z,25.10
2022-07-29T11:13:05.911Z,25.10
2022-07-29T11:15:54.828Z,25.10
2022-07-29T11:18:22.310Z,25.10
2022-07-29T11:20:54.047Z,25.30
2022-07-29T11:23:33.957Z,25.30
2022-07-29T11:26:10.769Z,25.30
2022-07-29T11:28:55.683Z,25.40
2022-07-29T11:31:44.086Z,25.50
2022-07-29T11:34:37.942Z,25.70
2022-07-29T11:37:08.423Z,25.90
2022-07-29T11:39:39.731Z,26.20
2022-07-29T11:42:28.199Z,26.30
2022-07-29T11:45:44.362Z,26.30
2022-07-29T11:48:05.243Z,26.20
2022-07-29T11:50:37.673Z,26.00
2022-07-29T11:53:13.244Z,25.80
2022-07-29T11:55:50.919Z,25.80
2022-07-29T11:58:24.994Z,25.80
2022-07-29T12:00:52.957Z,26.00
2022-07-29T12:03:35.532Z,26.00
2022-07-29T12:06:13.012Z,25.90
2022-07-29T12:08:44.328Z,25.90
2022-07-29T12:11:22.666Z,25.70
2022-07-29T12:13:51.912Z,25.50
2022-07-29T12:16:25.518Z,25.30
2022-07-29T12:19:02.121Z,25.30
2022-07-29T12:21:30.383Z,25.20
2022-07-29T12:24:03.449Z,25.10
2022-07-29T12:26:34.280Z,25.20
2022-07-29T12:29:03.308Z,25.40
2022-07-29T12:31:43.256Z,25.50
2022-07-29T12:34:13.448Z,25.50
2022-07-29T12:36:40.898Z,25.50
2022-07-29T12:39:07.891Z,25.50
2022-07-29T12:41:35.683Z,25.40
2022-07-29T12:44:02.482Z,25.40
2022-07-29T12:46:29.527Z,25.50
2022-07-29T12:48:57.463Z,25.60
2022-07-29T12:51:37.490Z,25.60
2022-07-29T12:54:12.225Z,25.70
2022-07-29T12:56:44.356Z,25.70
2022-07-29T12:59:22.962Z,25.70
2022-07-29T13:01:51.993Z,25.70
2022-07-29T13:04:29.869Z,25.70
2022-07-29T13:07:08.241Z,25.80
2022-07-29T13:09:40.784Z,25.90
2022-07-29T13:12:09.289Z,25.80
2022-07-29T13:14:38.001Z,25.70
2022-07-29T13:17:24.405Z,25.70
2022-07-29T13:19:53.013Z,25.70
2022-07-29T13:22:21.919Z,25.70
2022-07-29T13:24:59.201Z,25.80
2022-07-29T13:27:28.222Z,25.80
2022-07-29T13:29:58.254Z,25.90
2022-07-29T13:32:29.194Z,25.90
2022-07-29T13:35:05.444Z,26.00
2022-07-29T13:37:35.342Z,26.10
2022-07-29T13:40:04.334Z,26.20
2022-07-29T13:42:33.066Z,26.20
2022-07-29T13:45:00.517Z,26.20
2022-07-29T13:47:32.359Z,26.20
2022-07-29T13:50:03.949Z,26.20
2022-07-29T13:52:34.285Z,26.30
2022-07-29T13:55:01.274Z,26.20
2022-07-29T13:57:28.094Z,26.10
2022-07-29T13:59:54.979Z,26.00
2022-07-29T14:02:25.311Z,26.00
2022-07-29T14:04:53.607Z,26.00
2022-07-29T14:07:20.414Z,26.00
2022-07-29T14:09:47.312Z,26.00
2022-07-29T14:12:14.270Z,25.90
2022-07-29T14:14:42.402Z,26.00
2022-07-29T14:17:10.515Z,25.90
2022-07-29T14:19:38.941Z,25.80
2022-07-29T14:22:06.625Z,25.80
2022-07-29T14:24:34.702Z,25.70
2022-07-29T14:27:07.666Z,25.70
2022-07-29T14:29:36.923Z,25.60
2022-07-29T14:32:06.257Z,25.60
2022-07-29T14:34:34.377Z,25.60
2022-07-29T14:37:01.638Z,25.50
2022-07-29T14:39:31.899Z,25.50
2022-07-29T14:41:59.471Z,25.50
2022-07-29T14:44:31.897Z,25.50
2022-07-29T14:47:00.925Z,25.50
2022-07-29T14:49:30.220Z,25.40
2022-07-29T14:51:57.202Z,25.40
2022-07-29T14:54:24.080Z,25.30
2022-07-29T14:56:51.843Z,25.30
2022-07-29T14:59:19.246Z,25.30
2022-07-29T15:01:45.995Z,25.20
2022-07-29T15:04:12.698Z,25.20
2022-07-29T15:06:39.795Z,25.20
2022-07-29T15:09:06.641Z,25.30
2022-07-29T15:11:37.023Z,25.30
2022-07-29T15:14:06.699Z,25.20
2022-07-29T15:16:33.954Z,25.20
2022-07-29T15:19:01.151Z,25.20
2022-07-29T15:21:28.495Z,25.10
2022-07-29T15:23:55.201Z,25.10
2022-07-29T15:26:22.026Z,25.10
2022-07-29T15:28:49.150Z,25.00
2022-07-29T15:31:16.108Z,25.00
2022-07-29T15:33:42.891Z,25.10
2022-07-29T15:36:09.678Z,25.10
2022-07-29T15:38:41.618Z,25.10
2022-07-29T15:41:08.901Z,25.10
2022-07-29T15:43:36.235Z,25.10
2022-07-29T15:46:21.702Z,25.00
2022-07-29T15:48:48.637Z,25.00
2022-07-29T15:51:15.357Z,25.10
2022-07-29T15:53:42.167Z,25.00
2022-07-29T15:56:08.934Z,25.00
2022-07-29T15:58:35.711Z,24.90
2022-07-29T16:01:02.528Z,25.00
2022-07-29T16:03:29.484Z,25.00
2022-07-29T16:05:56.174Z,25.10
2022-07-29T16:08:23.060Z,25.20
2022-07-29T16:10:49.802Z,25.30
2022-07-29T16:13:17.106Z,25.30
2022-07-29T16:15:45.873Z,25.40
2022-07-29T16:18:30.109Z,25.50
2022-07-29T16:20:57.257Z,25.50
2022-07-29T16:23:24.672Z,25.50
2022-07-29T16:25:59.577Z,25.40
2022-07-29T16:28:27.964Z,25.20
2022-07-29T16:30:54.799Z,25.10
2022-07-29T16:33:21.707Z,25.10
2022-07-29T16:35:48.399Z,25.00
2022-07-29T16:38:15.376Z,25.00
2022-07-29T16:40:42.573Z,25.10
2022-07-29T16:43:09.685Z,25.10
2022-07-29T16:45:39.472Z,25.30
2022-07-29T16:48:18.043Z,25.40
2022-07-29T16:50:45.739Z,25.50
2022-07-29T16:53:12.798Z,25.60
2022-07-29T16:55:42.434Z,25.60
2022-07-29T16:58:10.041Z,25.70
2022-07-29T17:00:37.428Z,25.60
2022-07-29T17:03:05.506Z,25.50
2022-07-29T17:05:52.526Z,25.40
2022-07-29T17:08:20.069Z,25.30
2022-07-29T17:10:47.443Z,25.30
2022-07-29T17:13:14.617Z,25.30
2022-07-29T17:15:42.958Z,25.20
2022-07-29T17:18:12.210Z,25.20
2022-07-29T17:20:41.484Z,25.30
2022-07-29T17:23:08.241Z,25.30
2022-07-29T17:25:35.032Z,25.40
2022-07-29T17:28:01.832Z,25.40
2022-07-29T17:30:29.642Z,25.40
2022-07-29T17:32:56.416Z,25.50
2022-07-29T17:35:42.112Z,25.50
2022-07-29T17:38:08.828Z,25.50
2022-07-29T17:40:35.550Z,25.50
2022-07-29T17:43:02.312Z,25.50
2022-07-29T17:45:49.589Z,25.40
2022-07-29T17:48:15.760Z,25.30
2022-07-29T17:50:42.538Z,25.20
2022-07-29T17:53:09.565Z,25.10
2022-07-29T17:55:45.265Z,25.10
2022-07-29T17:58:12.120Z,25.10
2022-07-29T18:00:39.215Z,25.00
2022-07-29T18:03:06.451Z,25.00
2022-07-29T18:05:33.592Z,25.00
2022-07-29T18:08:00.624Z,25.00
2022-07-29T18:10:27.372Z,25.00
2022-07-29T18:12:54.066Z,24.90
2022-07-29T18:15:20.817Z,24.80
2022-07-29T18:17:52.914Z,24.70
2022-07-29T18:20:24.624Z,24.70
2022-07-29T18:22:51.380Z,24.60
2022-07-29T18:25:18.353Z,24.50
2022-07-29T18:27:45.192Z,24.40
2022-07-29T18:30:12.382Z,24.40
2022-07-29T18:32:39.302Z,24.20
2022-07-29T18:35:06.402Z,24.20
2022-07-29T18:38:01.107Z,24.10
2022-07-29T18:40:25.695Z,23.90
2022-07-29T18:42:53.261Z,23.90
2022-07-29T18:45:20.039Z,23.80
2022-07-29T18:47:49.517Z,23.70
2022-07-29T18:50:16.832Z,23.60
2022-07-29T18:52:45.978Z,23.50
2022-07-29T18:55:14.233Z,23.40
2022-07-29T18:57:55.793Z,23.30
2022-07-29T19:00:24.274Z,23.30
2022-07-29T19:02:51.264Z,23.10
2022-07-29T19:05:18.318Z,23.10
2022-07-29T19:07:45.493Z,23.00
2022-07-29T19:10:13.452Z,22.90
2022-07-29T19:12:40.359Z,22.90
2022-07-29T19:15:08.159Z,22.80
2022-07-29T19:17:34.947Z,22.80
2022-07-29T19:20:02.182Z,22.70
2022-07-29T19:22:28.922Z,22.70
2022-07-29T19:24:55.762Z,22.60
2022-07-29T19:27:22.463Z,22.60
2022-07-29T19:29:49.282Z,22.50
2022-07-29T19:32:24.539Z,22.40
2022-07-29T19:35:10.840Z,22.40
2022-07-29T19:37:37.649Z,22.30
2022-07-29T19:40:05.906Z,22.30
2022-07-29T19:42:32.714Z,22.30
2022-07-29T19:44:59.459Z,22.30
2022-07-29T19:47:26.253Z,22.20
2022-07-29T19:49:52.969Z,22.20
2022-07-29T19:52:19.754Z,22.20
2022-07-29T19:54:48.735Z,22.10
2022-07-29T19:57:15.869Z,22.10
2022-07-29T19:59:42.972Z,22.10
2022-07-29T20:02:12.199Z,22.10
2022-07-29T20:04:39.365Z,22.10
2022-07-29T20:07:07.191Z,22.00
2022-07-29T20:09:33.948Z,22.00
2022-07-29T20:12:00.690Z,22.00
2022-07-29T20:14:27.421Z,22.00
2022-07-29T20:16:54.602Z,22.00
2022-07-29T20:19:21.613Z,22.00
2022-07-29T20:21:51.513Z,21.90
2022-07-29T20:24:21.890Z,21.90
2022-07-29T20:26:49.054Z,21.80
2022-07-29T20:29:16.467Z,21.80
2022-07-29T20:31:43.363Z,21.80
2022-07-29T20:34:10.576Z,21.80
2022-07-29T20:36:37.660Z,21.80
2022-07-29T20:39:04.466Z,21.80
2022-07-29T20:41:31.184Z,21.70
2022-07-29T20:43:57.900Z,21.70
2022-07-29T20:46:24.617Z,21.70
2022-07-29T20:48:51.594Z,21.60
2022-07-29T20:51:18.535Z,21.60
2022-07-29T20:53:45.274Z,21.60
2022-07-29T20:56:14.869Z,21.60
2022-07-29T20:58:42.271Z,21.60
2022-07-29T21:01:09.704Z,21.50
2022-07-29T21:03:36.758Z,21.50
2022-07-29T21:06:03.888Z,21.50
2022-07-29T21:08:30.982Z,21.50
2022-07-29T21:10:57.802Z,21.50
2022-07-29T21:13:25.531Z,21.50
2022-07-29T21:15:53.875Z,21.40
2022-07-29T21:18:37.011Z,21.40
2022-07-29T21:21:04.946Z,21.40
2022-07-29T21:23:32.155Z,21.40
2022-07-29T21:25:58.932Z,21.40
2022-07-29T21:28:40.914Z,21.40
2022-07-29T21:31:16.094Z,21.40
2022-07-29T21:33:45.683Z,21.30
2022-07-29T21:36:46.773Z,21.40
2022-07-29T21:39:06.831Z,21.40
2022-07-29T21:41:34.416Z,21.40
2022-07-29T21:44:01.297Z,21.40
2022-07-29T21:46:28.284Z,21.30
2022-07-29T21:48:55.320Z,21.30
2022-07-29T21:51:22.129Z,21.30
2022-07-29T21:53:50.461Z,21.30
2022-07-29T21:56:19.770Z,21.20
2022-07-29T21:58:47.959Z,21.20
2022-07-29T22:01:14.793Z,21.20
2022-07-29T22:03:41.634Z,21.20
2022-07-29T22:06:08.442Z,21.20
2022-07-29T22:08:40.154Z,21.20
2022-07-29T22:11:06.842Z,21.10
2022-07-29T22:13:33.718Z,21.10
2022-07-29T22:16:03.825Z,21.00
2022-07-29T22:18:30.542Z,21.00
2022-07-29T22:20:57.454Z,20.90
2022-07-29T22:23:24.477Z,20.80
2022-07-29T22:25:51.300Z,20.70
2022-07-29T22:28:18.030Z,20.60
2022-07-29T22:30:44.882Z,20.50
2022-07-29T22:33:16.976Z,20.50
2022-07-29T22:35:45.007Z,20.40
2022-07-29T22:38:17.116Z,20.30
2022-07-29T22:40:43.895Z,20.20
2022-07-29T22:43:10.685Z,20.10
2022-07-29T22:45:37.467Z,20.00
2022-07-29T22:48:05.108Z,20.00
2022-07-29T22:50:31.923Z,19.90
2022-07-29T22:52:58.609Z,19.80
2022-07-29T22:55:25.331Z,19.80
2022-07-29T22:57:52.080Z,19.70
2022-07-29T23:00:19.022Z,19.60
2022-07-29T23:02:45.691Z,19.60
2022-07-29T23:05:15.773Z,19.60
2022-07-29T23:07:42.646Z,19.50
2022-07-29T23:10:09.596Z,19.50
2022-07-29T23:12:37.590Z,19.40
2022-07-29T23:15:05.666Z,19.40
2022-07-29T23:17:36.150Z,19.30
2022-07-29T23:20:08.012Z,19.20
2022-07-29T23:22:35.757Z,19.20
2022-07-29T23:25:02.593Z,19.20
2022-07-29T23:27:29.348Z,19.10
2022-07-29T23:29:56.118Z,19.10
2022-07-29T23:32:22.842Z,19.00
2022-07-29T23:34:49.566Z,19.00
2022-07-29T23:37:16.274Z,18.90
2022-07-29T23:39:43.048Z,18.90
2022-07-29T23:42:09.816Z,18.80
2022-07-29T23:44:36.535Z,18.80
2022-07-29T23:47:03.721Z,18.70
2022-07-29T23:49:30.795Z,18.70
2022-07-29T23:51:57.527Z,18.70
2022-07-29T23:54:24.289Z,18.70
2022-07-29T23:56:50.975Z,18.60
2022-07-29T23:59:17.705Z,18.60
